Time;durP1;ratioP1;P1;durP2;ratioP2;P2;SDS_P1;SDS_P2;PMS_P1;PMS_P2;Temp;Humidity;BMP_temperature;BMP_pressure;BME280_temperature;BME280_humidity;BME280_pressure;Samples;Min_cycle;Max_cycle;Signal;HPM_P1;HPM_P2
2023/05/23 00:01:48;;;;;;;9.97;5.47;;;16.30;99.90;;;;;;5031065;28;20220;-74
2023/05/23 00:04:17;;;;;;;10.53;6.20;;;16.20;99.90;;;;;;5029007;28;20680;-74
2023/05/23 00:06:49;;;;;;;8.97;5.53;;;16.30;99.90;;;;;;5030521;28;20198;-73
2023/05/23 00:09:16;;;;;;;12.00;6.03;;;16.20;99.90;;;;;;5026890;28;20256;-74
2023/05/23 00:11:44;;;;;;;12.95;6.38;;;16.20;99.90;;;;;;5027646;28;20669;-74
2023/05/23 00:14:14;;;;;;;10.37;5.80;;;16.20;99.90;;;;;;5028690;28;20568;-74
2023/05/23 00:16:43;;;;;;;9.07;5.90;;;16.20;99.90;;;;;;5026606;28;20202;-74
2023/05/23 00:19:13;;;;;;;12.90;6.17;;;16.20;99.90;;;;;;5029866;28;20548;-74
2023/05/23 00:21:42;;;;;;;14.95;6.50;;;16.20;99.90;;;;;;5026741;28;20213;-73
2023/05/23 00:24:09;;;;;;;12.85;6.28;;;16.20;99.90;;;;;;4993570;28;20199;-74
2023/05/23 00:26:36;;;;;;;13.63;6.57;;;16.20;99.90;;;;;;5026222;28;20580;-75
2023/05/23 00:29:02;;;;;;;19.10;7.07;;;16.10;99.90;;;;;;5019684;28;20229;-73
2023/05/23 00:31:30;;;;;;;16.47;6.87;;;16.10;99.90;;;;;;5030028;28;20245;-75
2023/05/23 00:33:57;;;;;;;17.77;7.00;;;16.10;99.90;;;;;;4995448;28;20210;-74
2023/05/23 00:36:24;;;;;;;13.77;7.80;;;16.10;99.90;;;;;;5026204;28;20233;-74
2023/05/23 00:38:52;;;;;;;15.33;6.20;;;16.00;99.90;;;;;;5024882;28;20218;-74
2023/05/23 00:41:19;;;;;;;11.53;5.77;;;15.90;99.90;;;;;;5026683;28;20232;-75
2023/05/23 00:43:46;;;;;;;15.17;6.70;;;15.80;99.90;;;;;;5025961;28;20209;-73
2023/05/23 00:46:13;;;;;;;13.63;6.03;;;15.80;99.90;;;;;;5025285;28;20556;-75
2023/05/23 00:48:40;;;;;;;14.90;6.13;;;15.80;99.90;;;;;;5025142;28;20229;-74
2023/05/23 00:51:07;;;;;;;14.13;6.23;;;15.80;99.90;;;;;;5024823;28;20676;-73
2023/05/23 00:53:34;;;;;;;9.27;5.13;;;15.70;99.90;;;;;;5008279;28;20206;-73
2023/05/23 00:56:02;;;;;;;12.53;5.57;;;15.70;99.90;;;;;;5029280;28;20303;-73
2023/05/23 00:58:29;;;;;;;10.43;4.53;;;15.60;99.90;;;;;;5021271;28;20714;-75
2023/05/23 01:00:56;;;;;;;10.40;4.93;;;15.50;99.90;;;;;;5029272;28;20226;-74
2023/05/23 01:03:27;;;;;;;10.70;5.80;;;15.50;99.90;;;;;;5029638;28;20236;-73
2023/05/23 01:05:55;;;;;;;9.07;5.57;;;15.50;99.90;;;;;;5027358;28;20575;-74
2023/05/23 01:08:22;;;;;;;13.90;6.37;;;15.50;99.90;;;;;;5022778;28;20210;-74
2023/05/23 01:10:49;;;;;;;10.73;5.53;;;15.40;99.90;;;;;;5026027;28;20237;-75
2023/05/23 01:13:22;;;;;;;13.43;5.80;;;15.40;99.90;;;;;;5029170;28;20279;-74
2023/05/23 01:16:06;;;;;;;11.63;5.40;;;15.40;99.90;;;;;;5025386;28;20697;-74
2023/05/23 01:18:53;;;;;;;11.40;5.87;;;15.40;99.90;;;;;;5026121;28;20246;-74
2023/05/23 01:21:22;;;;;;;15.13;6.10;;;15.20;99.90;;;;;;5025189;28;20279;-73
2023/05/23 01:24:04;;;;;;;11.67;5.70;;;15.40;99.90;;;;;;5025520;28;20256;-74
2023/05/23 01:26:52;;;;;;;11.33;5.93;;;15.40;99.90;;;;;;5022058;28;20572;-74
2023/05/23 01:29:33;;;;;;;13.00;6.27;;;15.40;99.90;;;;;;5021276;28;20222;-74
2023/05/23 01:32:02;;;;;;;16.53;7.13;;;15.40;99.90;;;;;;5024486;28;20719;-73
2023/05/23 01:34:31;;;;;;;11.70;6.57;;;15.30;99.90;;;;;;5029022;28;20205;-74
2023/05/23 01:36:59;;;;;;;16.40;6.93;;;15.40;99.90;;;;;;5024041;28;20304;-74
2023/05/23 01:39:26;;;;;;;13.77;7.57;;;15.40;99.90;;;;;;5028131;28;20658;-75
2023/05/23 01:41:53;;;;;;;13.87;7.30;;;15.40;99.90;;;;;;5023385;28;20271;-75
2023/05/23 01:44:21;;;;;;;15.50;7.37;;;15.30;99.90;;;;;;5028803;28;20252;-74
2023/05/23 01:46:47;;;;;;;14.13;6.87;;;15.30;99.90;;;;;;5006276;28;20596;-74
2023/05/23 01:49:17;;;;;;;13.47;6.60;;;15.30;99.90;;;;;;5025458;28;20655;-75
2023/05/23 01:51:45;;;;;;;17.93;7.00;;;15.40;99.90;;;;;;5011008;28;20206;-75
2023/05/23 01:54:15;;;;;;;16.20;7.43;;;15.50;99.90;;;;;;5023532;28;20210;-74
2023/05/23 01:56:43;;;;;;;11.00;6.40;;;15.40;99.90;;;;;;5024262;28;20322;-73
2023/05/23 01:59:10;;;;;;;14.20;6.23;;;15.40;99.90;;;;;;5022985;28;20268;-74
2023/05/23 02:01:38;;;;;;;12.70;6.50;;;15.40;99.90;;;;;;5020392;28;20210;-74
2023/05/23 02:04:05;;;;;;;13.03;6.60;;;15.40;99.90;;;;;;5012128;28;20293;-74
2023/05/23 02:06:33;;;;;;;15.93;6.77;;;15.50;99.90;;;;;;5013840;28;20206;-75
2023/05/23 02:08:59;;;;;;;14.80;6.67;;;15.50;99.90;;;;;;5008655;28;20221;-74
2023/05/23 02:11:27;;;;;;;13.90;6.20;;;15.40;99.90;;;;;;5032770;28;20220;-75
2023/05/23 02:13:53;;;;;;;10.43;6.33;;;15.40;99.90;;;;;;5010522;28;20576;-74
2023/05/23 02:16:22;;;;;;;15.93;6.40;;;15.40;99.90;;;;;;5015203;28;20230;-74
2023/05/23 02:18:51;;;;;;;13.50;6.50;;;15.30;99.90;;;;;;5028172;28;20675;-74
2023/05/23 02:21:18;;;;;;;13.57;6.97;;;15.40;99.90;;;;;;5028126;28;20201;-74
2023/05/23 02:23:45;;;;;;;14.23;6.77;;;15.30;99.90;;;;;;5032908;28;20256;-74
2023/05/23 02:26:12;;;;;;;11.83;6.50;;;15.30;99.90;;;;;;5028491;28;20206;-75
2023/05/23 02:28:38;;;;;;;13.17;6.50;;;15.20;99.90;;;;;;5031677;28;20626;-74
2023/05/23 02:31:05;;;;;;;11.43;6.57;;;15.20;99.90;;;;;;5032069;28;20269;-73
2023/05/23 02:33:32;;;;;;;14.30;6.57;;;15.20;99.90;;;;;;5028425;28;20206;-73
2023/05/23 02:35:59;;;;;;;12.23;7.00;;;15.20;99.90;;;;;;5028191;28;20229;-73
2023/05/23 02:38:26;;;;;;;11.93;6.20;;;15.20;99.90;;;;;;5035302;28;20190;-74
2023/05/23 02:40:53;;;;;;;15.33;6.80;;;15.20;99.90;;;;;;5028210;28;20202;-73
2023/05/23 02:43:19;;;;;;;9.40;5.87;;;15.20;99.90;;;;;;5032864;28;20647;-74
2023/05/23 02:45:46;;;;;;;12.30;6.43;;;15.20;99.90;;;;;;5027788;28;20226;-74
2023/05/23 02:48:13;;;;;;;13.87;6.73;;;15.20;99.90;;;;;;5028426;28;20238;-75
2023/05/23 02:50:40;;;;;;;15.60;7.40;;;15.20;99.90;;;;;;5026957;28;20713;-73
2023/05/23 02:53:06;;;;;;;12.40;7.03;;;15.20;99.90;;;;;;5032299;28;20206;-74
2023/05/23 02:55:33;;;;;;;15.20;7.07;;;15.10;99.90;;;;;;5024445;28;20347;-74
2023/05/23 02:58:00;;;;;;;13.80;6.87;;;15.10;99.90;;;;;;5031245;28;20218;-74
2023/05/23 03:00:27;;;;;;;16.20;7.83;;;15.10;99.90;;;;;;5027900;28;20229;-73
2023/05/23 03:02:53;;;;;;;16.50;7.50;;;15.10;99.90;;;;;;5014287;28;20218;-74
2023/05/23 03:05:20;;;;;;;18.03;6.70;;;15.10;99.90;;;;;;5027509;28;20293;-75
2023/05/23 03:07:47;;;;;;;16.57;6.80;;;15.10;99.90;;;;;;5031518;28;20213;-73
2023/05/23 03:10:14;;;;;;;14.63;6.97;;;15.00;99.90;;;;;;5023679;28;20742;-73
2023/05/23 03:12:41;;;;;;;17.07;7.20;;;15.10;99.90;;;;;;5028404;28;20230;-73
2023/05/23 03:15:08;;;;;;;13.83;7.07;;;15.10;99.90;;;;;;5026904;28;20222;-74
2023/05/23 03:17:35;;;;;;;12.50;6.60;;;15.10;99.90;;;;;;5030050;28;20304;-74
2023/05/23 03:20:03;;;;;;;13.67;7.07;;;15.10;99.90;;;;;;5027287;28;20214;-75
2023/05/23 03:22:30;;;;;;;14.20;6.77;;;15.10;99.90;;;;;;5030059;28;20267;-75
2023/05/23 03:24:57;;;;;;;18.23;6.80;;;15.10;99.90;;;;;;5031323;28;20281;-76
2023/05/23 03:27:24;;;;;;;16.77;7.47;;;15.10;99.90;;;;;;5031461;28;20635;-73
2023/05/23 03:29:50;;;;;;;14.30;6.60;;;15.00;99.90;;;;;;5027716;28;20234;-74
2023/05/23 03:32:17;;;;;;;17.33;7.60;;;15.00;99.90;;;;;;5043998;28;20237;-74
2023/05/23 03:34:44;;;;;;;14.50;6.70;;;15.00;99.90;;;;;;5042845;28;20206;-75
2023/05/23 03:37:11;;;;;;;18.20;7.27;;;14.90;99.90;;;;;;5050580;28;20232;-74
2023/05/23 03:39:38;;;;;;;13.70;6.63;;;14.90;99.90;;;;;;5051103;28;20431;-74
2023/05/23 03:42:05;;;;;;;14.70;7.13;;;14.90;99.90;;;;;;5051043;28;20198;-74
2023/05/23 03:44:32;;;;;;;13.07;6.87;;;14.90;99.90;;;;;;5051077;28;20217;-77
2023/05/23 03:46:59;;;;;;;12.43;6.67;;;15.00;99.90;;;;;;5050923;28;20209;-74
2023/05/23 03:49:26;;;;;;;14.33;6.50;;;14.90;99.90;;;;;;5046834;28;20216;-75
2023/05/23 03:51:53;;;;;;;11.50;6.13;;;15.00;99.90;;;;;;5046966;28;20213;-73
2023/05/23 03:54:20;;;;;;;17.43;6.87;;;15.00;99.90;;;;;;5049645;28;20232;-75
2023/05/23 03:56:46;;;;;;;15.03;7.37;;;15.00;99.90;;;;;;5050750;28;20233;-76
2023/05/23 03:59:13;;;;;;;15.80;6.83;;;15.00;99.90;;;;;;5046702;28;20221;-74
2023/05/23 04:01:40;;;;;;;14.23;6.73;;;15.00;99.90;;;;;;5050559;28;20221;-74
2023/05/23 04:04:07;;;;;;;11.73;5.70;;;15.10;99.90;;;;;;5043353;28;20546;-74
2023/05/23 04:06:34;;;;;;;14.47;6.03;;;14.90;99.90;;;;;;5053611;28;20558;-75
2023/05/23 04:09:01;;;;;;;13.90;6.50;;;14.90;99.90;;;;;;5038253;28;20236;-73
2023/05/23 04:11:29;;;;;;;12.27;7.27;;;15.00;99.90;;;;;;5046833;28;20471;-75
2023/05/23 04:13:56;;;;;;;10.80;5.70;;;15.00;99.90;;;;;;5045735;28;20201;-74
2023/05/23 04:16:23;;;;;;;14.77;6.67;;;15.00;99.90;;;;;;5049845;28;20228;-74
2023/05/23 04:18:50;;;;;;;11.37;6.00;;;15.00;99.90;;;;;;5050322;28;20215;-76
2023/05/23 04:21:17;;;;;;;16.43;6.70;;;14.90;99.90;;;;;;5050248;28;20213;-74
2023/05/23 04:23:44;;;;;;;10.30;5.80;;;14.80;99.90;;;;;;5046715;28;20212;-74
2023/05/23 04:26:11;;;;;;;14.47;6.30;;;14.80;99.90;;;;;;5050319;28;20224;-75
2023/05/23 04:28:38;;;;;;;9.47;5.63;;;14.70;99.90;;;;;;5048006;28;20208;-74
2023/05/23 04:31:05;;;;;;;14.00;6.57;;;14.70;99.90;;;;;;5042796;28;20241;-74
2023/05/23 04:33:33;;;;;;;16.00;5.90;;;14.60;99.90;;;;;;5026735;28;20238;-75
2023/05/23 04:36:01;;;;;;;12.37;5.90;;;14.70;99.90;;;;;;5029670;28;20367;-74
2023/05/23 04:38:28;;;;;;;12.60;5.50;;;14.70;99.90;;;;;;5022925;28;20202;-75
2023/05/23 04:40:56;;;;;;;16.27;6.17;;;14.60;99.90;;;;;;5029839;28;20208;-73
2023/05/23 04:43:25;;;;;;;11.33;5.97;;;14.60;99.90;;;;;;5026217;28;20288;-75
2023/05/23 04:45:56;;;;;;;14.10;5.87;;;14.60;99.90;;;;;;5024589;28;20245;-74
2023/05/23 04:48:23;;;;;;;13.47;5.50;;;14.60;99.90;;;;;;5025223;28;20194;-74
2023/05/23 04:50:51;;;;;;;16.17;6.20;;;14.60;99.90;;;;;;5030244;28;20210;-75
2023/05/23 04:53:18;;;;;;;18.13;7.00;;;14.50;99.90;;;;;;5022049;28;20673;-75
2023/05/23 04:55:45;;;;;;;19.10;6.97;;;14.50;99.90;;;;;;5025963;28;20753;-74
2023/05/23 04:58:12;;;;;;;19.17;6.53;;;14.40;99.90;;;;;;5030017;28;20208;-74
2023/05/23 05:00:39;;;;;;;14.60;6.73;;;14.40;99.90;;;;;;5024735;28;20214;-75
2023/05/23 05:03:08;;;;;;;17.67;5.53;;;14.40;99.90;;;;;;5027690;28;20221;-76
2023/05/23 05:05:36;;;;;;;12.60;6.17;;;14.40;99.90;;;;;;5027022;28;20286;-75
2023/05/23 05:08:03;;;;;;;17.03;6.23;;;14.30;99.90;;;;;;5027180;28;20741;-75
2023/05/23 05:10:29;;;;;;;17.47;6.83;;;14.20;99.90;;;;;;5027525;28;20209;-75
2023/05/23 05:12:56;;;;;;;13.40;5.47;;;14.20;99.90;;;;;;5023674;28;20205;-74
2023/05/23 05:15:23;;;;;;;11.07;5.77;;;14.20;99.90;;;;;;5029444;28;20221;-75
2023/05/23 05:17:50;;;;;;;12.03;5.70;;;14.10;99.90;;;;;;5008154;28;20206;-74
2023/05/23 05:20:17;;;;;;;15.33;5.50;;;14.10;99.90;;;;;;5029910;28;20208;-76
2023/05/23 05:22:45;;;;;;;18.77;5.60;;;14.10;99.90;;;;;;5028932;28;20213;-75
2023/05/23 05:25:12;;;;;;;13.17;5.50;;;14.10;99.90;;;;;;5029356;28;20206;-74
2023/05/23 05:27:39;;;;;;;16.03;5.83;;;14.10;99.90;;;;;;5029794;28;20280;-74
2023/05/23 05:30:07;;;;;;;12.00;4.80;;;14.10;99.90;;;;;;5025039;28;20562;-74
2023/05/23 05:32:34;;;;;;;14.27;5.13;;;14.10;99.90;;;;;;5021634;28;20222;-75
2023/05/23 05:35:02;;;;;;;15.47;5.40;;;14.10;99.90;;;;;;5029074;28;20259;-74
2023/05/23 05:37:29;;;;;;;11.13;5.60;;;14.10;99.90;;;;;;5023830;28;20230;-74
2023/05/23 05:39:55;;;;;;;17.50;6.00;;;14.10;99.90;;;;;;5020644;28;20201;-75
2023/05/23 05:42:22;;;;;;;14.87;6.70;;;14.00;99.90;;;;;;5028818;28;20737;-77
2023/05/23 05:44:49;;;;;;;11.17;5.93;;;14.00;99.90;;;;;;5025112;28;20218;-73
2023/05/23 05:47:16;;;;;;;15.90;6.13;;;14.00;99.90;;;;;;5028118;28;20232;-75
2023/05/23 05:49:43;;;;;;;15.03;5.73;;;14.10;99.90;;;;;;5022862;28;20236;-74
2023/05/23 05:52:09;;;;;;;12.13;5.27;;;14.00;99.90;;;;;;5023226;28;20202;-74
2023/05/23 05:54:36;;;;;;;12.50;5.33;;;14.00;99.90;;;;;;5028152;28;20220;-74
2023/05/23 05:57:03;;;;;;;13.93;5.60;;;13.90;99.90;;;;;;5020160;28;20287;-74
2023/05/23 05:59:30;;;;;;;11.43;5.33;;;13.80;99.90;;;;;;5025856;28;20214;-76
2023/05/23 06:01:58;;;;;;;13.03;5.67;;;13.70;99.90;;;;;;5025475;28;20264;-76
2023/05/23 06:04:25;;;;;;;9.87;4.90;;;13.70;99.90;;;;;;5026897;28;20202;-74
2023/05/23 06:06:52;;;;;;;11.90;4.90;;;13.60;99.90;;;;;;5031328;28;20686;-74
2023/05/23 06:09:18;;;;;;;14.93;4.90;;;13.60;99.90;;;;;;5022142;28;20207;-74
2023/05/23 06:11:45;;;;;;;14.00;5.30;;;13.60;99.90;;;;;;5027144;28;20206;-75
2023/05/23 06:14:12;;;;;;;12.70;4.50;;;13.60;99.90;;;;;;5023083;28;20310;-76
2023/05/23 06:16:39;;;;;;;14.80;4.80;;;13.60;99.90;;;;;;5026454;28;20225;-78
2023/05/23 06:19:07;;;;;;;8.67;4.70;;;13.40;99.90;;;;;;5006522;28;20301;-76
2023/05/23 06:21:37;;;;;;;7.17;4.00;;;13.50;99.90;;;;;;5024667;28;20591;-75
2023/05/23 06:24:05;;;;;;;11.70;4.10;;;13.40;99.90;;;;;;5024751;28;20327;-74
2023/05/23 06:26:32;;;;;;;12.10;4.73;;;13.40;99.90;;;;;;5011572;28;20206;-77
2023/05/23 06:29:02;;;;;;;11.83;4.70;;;13.40;99.90;;;;;;5011269;28;20684;-74
2023/05/23 06:31:29;;;;;;;6.53;4.30;;;13.30;99.90;;;;;;5020456;28;20225;-74
2023/05/23 06:33:56;;;;;;;8.70;4.03;;;13.30;99.90;;;;;;5048466;28;20213;-74
2023/05/23 06:36:23;;;;;;;11.90;4.20;;;13.30;99.90;;;;;;5048715;28;20269;-74
2023/05/23 06:38:49;;;;;;;11.57;4.63;;;13.50;99.90;;;;;;5047655;28;20530;-74
2023/05/23 06:41:16;;;;;;;9.47;4.43;;;13.50;99.90;;;;;;5056470;28;20218;-74
2023/05/23 06:43:43;;;;;;;11.70;4.57;;;13.60;99.90;;;;;;5047609;28;20543;-76
2023/05/23 06:46:10;;;;;;;8.30;4.90;;;13.50;99.90;;;;;;5056095;28;20218;-75
2023/05/23 06:48:37;;;;;;;12.43;4.10;;;13.70;99.90;;;;;;5047813;28;20221;-75
2023/05/23 06:51:07;;;;;;;11.77;4.37;;;13.80;99.90;;;;;;5051049;28;20217;-76
2023/05/23 06:53:34;;;;;;;11.37;4.33;;;14.10;99.90;;;;;;5048256;28;20240;-74
2023/05/23 06:56:00;;;;;;;12.33;4.77;;;14.10;99.90;;;;;;5048344;28;20205;-74
2023/05/23 06:58:28;;;;;;;8.67;3.70;;;14.30;99.90;;;;;;5052182;28;20560;-76
2023/05/23 07:00:55;;;;;;;11.37;4.33;;;14.40;99.90;;;;;;5048153;28;20252;-75
2023/05/23 07:03:21;;;;;;;8.90;4.23;;;14.50;99.90;;;;;;5052116;28;20213;-75
2023/05/23 07:05:48;;;;;;;7.23;3.87;;;14.50;99.90;;;;;;5049222;28;20197;-75
2023/05/23 07:08:15;;;;;;;8.37;3.90;;;14.50;99.90;;;;;;5042858;28;20240;-75
2023/05/23 07:10:42;;;;;;;11.03;4.37;;;14.60;99.90;;;;;;5066696;28;20266;-74
2023/05/23 07:13:08;;;;;;;9.93;3.90;;;14.70;99.90;;;;;;5045427;28;20198;-75
2023/05/23 07:15:35;;;;;;;8.97;3.97;;;14.80;99.90;;;;;;5047316;28;20214;-75
2023/05/23 07:18:02;;;;;;;10.63;3.97;;;15.00;99.90;;;;;;5047483;28;20257;-74
2023/05/23 07:20:32;;;;;;;11.03;4.00;;;15.10;99.90;;;;;;5045699;28;20548;-75
2023/05/23 07:22:59;;;;;;;7.90;3.13;;;15.20;99.90;;;;;;5048638;28;20213;-74
2023/05/23 07:25:26;;;;;;;9.80;3.87;;;15.30;99.90;;;;;;5050770;28;20254;-75
2023/05/23 07:27:53;;;;;;;11.17;4.10;;;15.30;99.90;;;;;;5050890;28;20519;-74
2023/05/23 07:30:21;;;;;;;6.77;2.90;;;15.20;99.90;;;;;;5047721;28;20279;-74
2023/05/23 07:32:48;;;;;;;6.67;3.27;;;15.10;99.90;;;;;;5027588;28;20237;-74
2023/05/23 07:35:15;;;;;;;5.33;2.60;;;15.00;99.90;;;;;;5027893;28;20198;-74
2023/05/23 07:38:00;;;;;;;8.47;2.87;;;14.90;99.90;;;;;;5025878;28;20757;-75
2023/05/23 07:40:27;;;;;;;9.47;2.93;;;14.70;99.90;;;;;;5006877;28;20214;-75
2023/05/23 07:42:54;;;;;;;7.20;2.73;;;14.70;99.90;;;;;;5012820;28;20234;-77
2023/05/23 07:45:21;;;;;;;7.80;2.40;;;14.70;99.90;;;;;;5031065;28;20277;-74
2023/05/23 07:47:48;;;;;;;5.37;2.83;;;14.80;99.90;;;;;;5013637;28;20202;-75
2023/05/23 07:50:16;;;;;;;10.70;2.70;;;14.90;99.90;;;;;;5009199;28;20206;-76
2023/05/23 07:52:43;;;;;;;10.90;3.73;;;14.90;99.90;;;;;;5009926;28;20206;-74
2023/05/23 07:55:10;;;;;;;7.03;2.60;;;14.90;99.90;;;;;;5010207;28;20223;-74
2023/05/23 07:57:37;;;;;;;11.70;2.93;;;15.00;99.90;;;;;;5029823;28;20343;-74
2023/05/23 08:00:06;;;;;;;10.50;2.75;;;15.20;99.90;;;;;;5012425;28;20840;-75
2023/05/23 08:02:32;;;;;;;12.50;2.90;;;15.60;99.90;;;;;;5026741;28;20202;-75
2023/05/23 08:04:59;;;;;;;11.13;2.40;;;15.90;99.90;;;;;;5008844;28;20218;-75
2023/05/23 08:07:26;;;;;;;10.55;2.90;;;16.20;99.90;;;;;;5027440;28;20206;-75
2023/05/23 08:09:53;;;;;;;9.73;2.80;;;16.30;99.90;;;;;;5027432;28;20225;-74
2023/05/23 08:12:20;;;;;;;8.52;2.58;;;16.40;99.90;;;;;;5028312;28;20205;-76
2023/05/23 08:14:46;;;;;;;12.82;3.10;;;16.40;99.90;;;;;;5025066;28;20245;-73
2023/05/23 08:17:17;;;;;;;7.93;2.40;;;16.40;99.90;;;;;;5027590;28;20222;-75
2023/05/23 08:19:44;;;;;;;10.20;2.50;;;16.20;99.90;;;;;;5028808;28;20263;-74
2023/05/23 08:22:11;;;;;;;9.27;2.33;;;15.90;99.90;;;;;;5023565;28;20198;-73
2023/05/23 08:24:38;;;;;;;7.90;2.55;;;15.80;99.90;;;;;;5019747;28;20256;-74
2023/05/23 08:27:06;;;;;;;12.65;2.72;;;15.70;99.90;;;;;;5021845;28;20272;-72
2023/05/23 08:29:37;;;;;;;7.80;2.90;;;15.60;99.90;;;;;;5020647;28;20221;-74
2023/05/23 08:32:04;;;;;;;7.93;2.33;;;15.40;99.90;;;;;;5020498;28;20233;-74
2023/05/23 08:34:31;;;;;;;12.80;2.27;;;15.50;99.90;;;;;;5008898;28;20202;-73
2023/05/23 08:36:58;;;;;;;7.45;2.00;;;15.60;99.90;;;;;;5011177;28;20686;-73
2023/05/23 08:39:25;;;;;;;10.10;2.55;;;15.80;99.90;;;;;;5010972;28;20572;-73
2023/05/23 08:41:52;;;;;;;6.53;2.45;;;16.00;99.90;;;;;;5010703;28;20207;-75
2023/05/23 08:44:19;;;;;;;11.32;3.30;;;16.00;99.90;;;;;;5010328;28;20218;-73
2023/05/23 08:46:48;;;;;;;10.10;2.40;;;16.00;99.90;;;;;;5028196;28;20591;-75
2023/05/23 08:49:21;;;;;;;7.63;2.15;;;16.00;99.90;;;;;;5025224;28;20206;-73
2023/05/23 08:51:54;;;;;;;6.18;2.00;;;16.00;99.90;;;;;;5004383;28;20297;-74
2023/05/23 08:54:21;;;;;;;7.88;1.95;;;16.00;99.90;;;;;;5022861;28;20205;-74
2023/05/23 08:56:48;;;;;;;7.20;2.25;;;16.10;99.90;;;;;;5027234;28;20230;-74
2023/05/23 08:59:15;;;;;;;8.50;1.95;;;16.20;99.90;;;;;;5029136;28;20529;-75
2023/05/23 09:01:42;;;;;;;7.88;2.25;;;16.40;99.90;;;;;;5029960;28;20210;-74
2023/05/23 09:04:11;;;;;;;9.85;2.72;;;16.60;99.90;;;;;;5029930;28;20209;-73
2023/05/23 09:06:37;;;;;;;11.18;2.55;;;16.70;99.90;;;;;;5025919;28;20210;-73
2023/05/23 09:09:04;;;;;;;14.02;2.50;;;16.70;99.90;;;;;;5024391;28;20248;-73
2023/05/23 09:11:32;;;;;;;10.20;2.75;;;16.70;99.90;;;;;;5027043;28;20194;-74
2023/05/23 09:14:03;;;;;;;10.85;2.30;;;16.70;99.90;;;;;;5026281;28;20263;-74
2023/05/23 09:16:34;;;;;;;11.30;2.85;;;16.70;99.90;;;;;;5025357;28;20190;-75
2023/05/23 09:19:10;;;;;;;8.65;2.10;;;16.90;99.90;;;;;;5029045;28;20202;-72
2023/05/23 09:21:40;;;;;;;15.15;2.20;;;17.30;99.90;;;;;;5019988;28;20233;-73
2023/05/23 09:24:07;;;;;;;6.00;2.20;;;17.60;99.90;;;;;;5022734;28;20252;-72
2023/05/23 09:26:34;;;;;;;9.57;2.55;;;18.00;99.90;;;;;;5022540;28;20552;-73
2023/05/23 09:29:04;;;;;;;11.63;2.63;;;18.20;99.90;;;;;;5023131;28;20217;-74
2023/05/23 09:31:31;;;;;;;9.77;2.10;;;18.40;99.90;;;;;;5024917;28;20312;-73
2023/05/23 09:34:01;;;;;;;8.52;2.25;;;18.60;99.90;;;;;;5021348;28;20208;-73
2023/05/23 09:36:29;;;;;;;10.93;2.30;;;18.70;99.90;;;;;;5028411;28;20268;-74
2023/05/23 09:38:56;;;;;;;11.27;3.13;;;18.70;99.90;;;;;;5028752;28;20226;-74
2023/05/23 09:41:23;;;;;;;7.40;2.00;;;18.50;99.90;;;;;;5025222;28;20297;-73
2023/05/23 09:43:52;;;;;;;6.82;2.38;;;18.40;99.90;;;;;;5022860;28;20201;-73
2023/05/23 09:46:21;;;;;;;8.75;2.45;;;18.20;99.90;;;;;;5021629;28;20546;-74
2023/05/23 09:48:51;;;;;;;9.43;2.90;;;18.20;99.90;;;;;;5023566;28;20580;-73
2023/05/23 09:51:21;;;;;;;9.73;2.67;;;18.00;99.90;;;;;;5022654;28;20205;-74
2023/05/23 09:53:49;;;;;;;7.55;2.63;;;18.20;99.90;;;;;;5028605;28;20230;-74
2023/05/23 09:56:16;;;;;;;6.25;2.55;;;18.40;99.90;;;;;;5028529;28;20245;-73
2023/05/23 09:58:48;;;;;;;7.45;2.50;;;18.70;99.90;;;;;;5028973;28;20324;-73
2023/05/23 10:01:16;;;;;;;9.70;2.78;;;18.90;99.90;;;;;;5023981;28;20206;-75
2023/05/23 10:03:56;;;;;;;6.45;2.75;;;19.00;99.90;;;;;;5022122;28;20650;-74
2023/05/23 10:06:36;;;;;;;8.68;2.50;;;19.10;99.90;;;;;;5027344;28;20230;-74
2023/05/23 10:09:06;;;;;;;6.65;2.05;;;19.30;99.90;;;;;;5017737;28;20214;-76
2023/05/23 10:11:33;;;;;;;7.43;2.10;;;19.30;99.90;;;;;;5023029;28;20198;-74
2023/05/23 10:14:03;;;;;;;7.45;2.63;;;19.30;99.90;;;;;;5010594;28;20210;-74
2023/05/23 10:16:38;;;;;;;7.55;1.90;;;19.20;99.90;;;;;;5028444;28;20571;-73
2023/05/23 10:19:23;;;;;;;6.93;2.22;;;19.20;99.90;;;;;;5024911;28;20228;-75
2023/05/23 10:21:56;;;;;;;11.75;2.15;;;19.30;99.90;;;;;;5021665;28;20198;-74
2023/05/23 10:24:25;;;;;;;5.95;2.05;;;19.50;99.90;;;;;;5026035;28;20256;-76
2023/05/23 10:26:53;;;;;;;6.75;2.15;;;19.60;99.90;;;;;;5028549;28;20584;-74
2023/05/23 10:29:24;;;;;;;5.65;2.13;;;19.30;99.90;;;;;;5014830;28;20236;-74
2023/05/23 10:31:52;;;;;;;8.65;2.58;;;19.10;99.90;;;;;;5027834;28;20226;-74
2023/05/23 10:34:27;;;;;;;6.25;2.33;;;18.70;99.90;;;;;;5027239;28;20226;-74
2023/05/23 10:37:14;;;;;;;11.13;2.60;;;18.70;99.90;;;;;;5028074;28;20332;-75
2023/05/23 10:40:08;;;;;;;11.18;3.05;;;18.50;99.90;;;;;;5024264;28;20206;-74
2023/05/23 10:42:48;;;;;;;10.27;2.40;;;18.50;99.90;;;;;;5024777;28;20244;-74
2023/05/23 10:45:19;;;;;;;9.38;2.53;;;18.40;99.90;;;;;;5022239;28;20221;-74
2023/05/23 10:47:47;;;;;;;7.03;2.28;;;18.50;99.90;;;;;;5025455;28;20210;-73
2023/05/23 10:50:36;;;;;;;7.55;2.50;;;18.70;99.90;;;;;;5031410;28;20252;-74
2023/05/23 10:53:04;;;;;;;6.05;2.45;;;19.00;99.90;;;;;;5030365;28;20204;-75
2023/05/23 10:55:36;;;;;;;13.13;2.50;;;19.10;99.90;;;;;;5028626;28;20225;-73
2023/05/23 10:58:19;;;;;;;12.25;3.08;;;19.00;99.90;;;;;;5011096;28;20226;-74
2023/05/23 11:00:58;;;;;;;6.20;2.40;;;18.80;99.90;;;;;;5011915;28;20225;-73
2023/05/23 11:03:47;;;;;;;10.65;2.47;;;18.70;99.90;;;;;;5023211;28;20202;-75
2023/05/23 11:06:38;;;;;;;7.95;2.08;;;18.70;99.90;;;;;;5028195;28;20323;-73
2023/05/23 11:09:12;;;;;;;8.23;2.13;;;19.00;99.90;;;;;;5023460;28;20210;-74
2023/05/23 11:11:58;;;;;;;7.35;2.42;;;19.00;99.90;;;;;;5025957;28;20255;-74
2023/05/23 11:14:36;;;;;;;9.50;2.72;;;19.00;99.90;;;;;;5025734;28;20209;-73
2023/05/23 11:17:18;;;;;;;6.18;2.28;;;19.10;99.90;;;;;;5029310;28;20205;-74
2023/05/23 11:20:05;;;;;;;8.35;2.28;;;19.20;99.90;;;;;;5026021;28;20256;-75
2023/05/23 11:22:33;;;;;;;9.85;2.55;;;19.20;99.90;;;;;;5027603;28;20312;-74
2023/05/23 11:25:05;;;;;;;10.40;2.35;;;19.20;99.90;;;;;;5014119;28;20210;-75
2023/05/23 11:27:37;;;;;;;11.73;3.05;;;19.30;99.90;;;;;;5028874;28;20272;-72
2023/05/23 11:30:12;;;;;;;6.28;1.88;;;19.10;99.90;;;;;;5012020;28;20672;-74
2023/05/23 11:32:41;;;;;;;6.93;2.20;;;19.10;99.90;;;;;;5024795;28;20231;-74
2023/05/23 11:35:09;;;;;;;5.97;2.40;;;19.00;99.90;;;;;;5028711;28;20202;-73
2023/05/23 11:37:39;;;;;;;6.30;2.35;;;19.00;99.90;;;;;;5026412;28;20313;-73
2023/05/23 11:40:25;;;;;;;7.97;2.50;;;18.80;99.90;;;;;;5026279;28;20206;-75
2023/05/23 11:42:56;;;;;;;13.85;2.45;;;19.00;99.90;;;;;;5024396;28;20304;-73
2023/05/23 11:45:23;;;;;;;8.07;2.40;;;19.00;99.90;;;;;;5009925;28;20210;-73
2023/05/23 11:47:50;;;;;;;10.82;2.92;;;19.00;99.90;;;;;;5026059;28;20209;-74
2023/05/23 11:50:19;;;;;;;5.57;2.22;;;18.80;99.90;;;;;;5024779;28;20647;-74
2023/05/23 11:52:50;;;;;;;7.13;2.50;;;18.80;99.90;;;;;;5027213;28;20449;-73
2023/05/23 11:55:21;;;;;;;7.03;2.33;;;19.20;99.90;;;;;;5028478;28;20210;-75
2023/05/23 11:57:49;;;;;;;9.65;2.47;;;19.30;99.90;;;;;;5026949;28;20221;-75
2023/05/23 12:00:17;;;;;;;8.45;2.80;;;19.30;99.90;;;;;;5031226;28;20279;-73
2023/05/23 12:02:46;;;;;;;8.32;2.15;;;19.10;99.90;;;;;;5027438;28;20273;-75
2023/05/23 12:05:13;;;;;;;6.10;1.88;;;19.00;99.90;;;;;;5033155;28;20635;-75
2023/05/23 12:07:42;;;;;;;9.75;2.20;;;19.10;99.90;;;;;;5023257;28;20218;-74
2023/05/23 12:10:09;;;;;;;5.88;2.30;;;19.20;99.90;;;;;;5030979;28;20214;-76
2023/05/23 12:12:37;;;;;;;4.72;1.90;;;19.30;99.90;;;;;;5027411;28;20296;-74
2023/05/23 12:15:04;;;;;;;8.38;2.05;;;19.30;99.90;;;;;;5030970;28;20244;-74
2023/05/23 12:17:34;;;;;;;13.82;1.88;;;19.30;99.90;;;;;;5026320;28;20228;-73
2023/05/23 12:20:01;;;;;;;8.35;1.85;;;19.20;99.90;;;;;;5023100;28;20210;-72
2023/05/23 12:22:28;;;;;;;8.63;2.03;;;19.40;99.90;;;;;;5027586;28;20210;-75
2023/05/23 12:24:55;;;;;;;9.75;1.92;;;19.60;99.90;;;;;;5026608;28;20198;-73
2023/05/23 12:27:30;;;;;;;8.90;2.22;;;19.90;99.90;;;;;;5030634;28;20202;-74
2023/05/23 12:30:16;;;;;;;8.75;2.35;;;19.90;99.90;;;;;;5027092;28;20631;-73
2023/05/23 12:32:44;;;;;;;6.72;2.28;;;19.80;99.90;;;;;;5024578;28;20247;-74
2023/05/23 12:35:13;;;;;;;12.38;2.10;;;19.50;99.90;;;;;;5030267;28;20284;-74
2023/05/23 12:37:44;;;;;;;7.20;2.55;;;19.20;99.90;;;;;;5030370;28;20296;-74
2023/05/23 12:40:11;;;;;;;7.57;2.00;;;18.90;99.90;;;;;;5030479;28;20213;-73
2023/05/23 12:42:51;;;;;;;5.28;2.05;;;18.70;99.90;;;;;;5030291;28;20202;-74
2023/05/23 12:45:37;;;;;;;8.95;1.98;;;18.60;99.90;;;;;;5029170;28;20256;-74
2023/05/23 12:48:05;;;;;;;8.02;1.95;;;18.70;99.90;;;;;;5023290;28;20528;-73
2023/05/23 12:50:33;;;;;;;11.00;2.33;;;18.70;99.90;;;;;;5030284;28;20568;-73